Terminal Aerodrome Forecast
Issued by NWS Brownsville, TX

Home | Current Version | Previous Version | Text Only | Print | Product List | Glossary On
Versions: 1 2 3 4 5 6 7 8 9 10 11 12 13 14 15 16 17 18 19 20 21
903
FTUS44 KBRO 030822 AAB
TAFBRO
TAF AMD
KBRO 030822Z 0308/0406 16009KT P6SM SCT015 OVC050
     FM031000 17012KT P6SM OVC015
     FM031500 17017G23KT P6SM OVC025
     FM031800 17021G29KT P6SM BKN035
     FM040000 15010KT P6SM OVC020=

USA.gov is the U.S. government's official web portal to all federal, state and local government web resources and services.